sensor_id;sensor_type;location;lat;lon;timestamp;pressure;altitude;pressure_sealevel;temperature;humidity
44872;BME280;30602;51.060;17.226;2023-04-25T00:00:30;100579.16;;;9.34;82.07
44872;BME280;30602;51.060;17.226;2023-04-25T00:04:10;100570.04;;;9.37;81.89
44872;BME280;30602;51.060;17.226;2023-04-25T00:08:03;100573.95;;;9.23;82.96
44872;BME280;30602;51.060;17.226;2023-04-25T00:11:33;100576.02;;;9.25;82.08
44872;BME280;30602;51.060;17.226;2023-04-25T00:15:03;100572.72;;;9.22;82.25
44872;BME280;30602;51.060;17.226;2023-04-25T00:23:18;100579.98;;;9.37;81.83
44872;BME280;30602;51.060;17.226;2023-04-25T00:27:23;100579.93;;;9.36;81.74
44872;BME280;30602;51.060;17.226;2023-04-25T00:31:04;100585.73;;;9.28;81.34
44872;BME280;30602;51.060;17.226;2023-04-25T00:34:44;100584.01;;;9.33;81.51
44872;BME280;30602;51.060;17.226;2023-04-25T00:38:48;100585.97;;;9.25;81.56
44872;BME280;30602;51.060;17.226;2023-04-25T00:42:41;100586.44;;;9.23;81.88
44872;BME280;30602;51.060;17.226;2023-04-25T00:46:22;100584.84;;;9.17;82.37
44872;BME280;30602;51.060;17.226;2023-04-25T00:49:45;100585.62;;;9.09;82.55
44872;BME280;30602;51.060;17.226;2023-04-25T00:53:06;100588.62;;;8.97;83.02
44872;BME280;30602;51.060;17.226;2023-04-25T00:57:01;100588.87;;;8.95;82.90
44872;BME280;30602;51.060;17.226;2023-04-25T01:00:31;100586.02;;;8.92;82.96
44872;BME280;30602;51.060;17.226;2023-04-25T01:04:08;100585.72;;;8.95;82.75
44872;BME280;30602;51.060;17.226;2023-04-25T01:07:51;100589.47;;;8.91;82.46
44872;BME280;30602;51.060;17.226;2023-04-25T01:11:13;100586.80;;;8.98;82.87
44872;BME280;30602;51.060;17.226;2023-04-25T01:14:51;100591.02;;;8.97;83.77
44872;BME280;30602;51.060;17.226;2023-04-25T01:18:13;100601.19;;;8.92;82.73
44872;BME280;30602;51.060;17.226;2023-04-25T01:22:04;100603.41;;;8.86;82.78
44872;BME280;30602;51.060;17.226;2023-04-25T01:25:23;100600.94;;;8.79;82.90
44872;BME280;30602;51.060;17.226;2023-04-25T01:28:42;100604.34;;;8.76;82.98
44872;BME280;30602;51.060;17.226;2023-04-25T01:32:05;100606.87;;;8.74;82.82
44872;BME280;30602;51.060;17.226;2023-04-25T01:35:58;100609.10;;;8.65;82.20
44872;BME280;30602;51.060;17.226;2023-04-25T01:39:49;100608.48;;;8.72;82.07
44872;BME280;30602;51.060;17.226;2023-04-25T01:43:29;100618.49;;;8.71;81.07
44872;BME280;30602;51.060;17.226;2023-04-25T01:47:10;100620.85;;;8.77;81.06
44872;BME280;30602;51.060;17.226;2023-04-25T01:50:48;100619.47;;;8.81;80.09
44872;BME280;30602;51.060;17.226;2023-04-25T01:54:29;100613.16;;;8.76;80.48
44872;BME280;30602;51.060;17.226;2023-04-25T02:02:16;100611.66;;;8.71;79.60
44872;BME280;30602;51.060;17.226;2023-04-25T02:05:56;100613.68;;;8.67;79.72
44872;BME280;30602;51.060;17.226;2023-04-25T02:09:43;100616.36;;;8.64;79.12
44872;BME280;30602;51.060;17.226;2023-04-25T02:13:16;100618.04;;;8.55;79.09
44872;BME280;30602;51.060;17.226;2023-04-25T02:16:35;100620.92;;;8.60;78.89
44872;BME280;30602;51.060;17.226;2023-04-25T02:20:17;100621.98;;;8.55;79.56
44872;BME280;30602;51.060;17.226;2023-04-25T02:23:58;100621.23;;;8.46;80.03
44872;BME280;30602;51.060;17.226;2023-04-25T02:27:16;100620.19;;;8.44;80.22
44872;BME280;30602;51.060;17.226;2023-04-25T02:34:52;100614.72;;;8.42;80.46
44872;BME280;30602;51.060;17.226;2023-04-25T02:38:12;100615.90;;;8.47;79.99
44872;BME280;30602;51.060;17.226;2023-04-25T02:41:34;100619.37;;;8.45;79.94
44872;BME280;30602;51.060;17.226;2023-04-25T02:45:16;100619.37;;;8.40;80.21
44872;BME280;30602;51.060;17.226;2023-04-25T02:49:04;100620.29;;;8.38;80.29
44872;BME280;30602;51.060;17.226;2023-04-25T02:52:45;100618.65;;;8.33;81.11
44872;BME280;30602;51.060;17.226;2023-04-25T02:56:40;100624.30;;;8.26;81.32
44872;BME280;30602;51.060;17.226;2023-04-25T03:00:40;100624.27;;;8.31;81.61
44872;BME280;30602;51.060;17.226;2023-04-25T03:04:25;100620.33;;;8.24;81.82
44872;BME280;30602;51.060;17.226;2023-04-25T03:08:18;100616.63;;;8.17;82.50
44872;BME280;30602;51.060;17.226;2023-04-25T03:12:01;100610.95;;;8.16;82.14
44872;BME280;30602;51.060;17.226;2023-04-25T03:15:41;100612.32;;;8.14;82.00
44872;BME280;30602;51.060;17.226;2023-04-25T03:19:21;100615.51;;;8.21;81.79
44872;BME280;30602;51.060;17.226;2023-04-25T03:23:35;100620.10;;;8.18;81.94
44872;BME280;30602;51.060;17.226;2023-04-25T03:27:18;100617.25;;;8.15;81.94
44872;BME280;30602;51.060;17.226;2023-04-25T03:30:39;100617.30;;;8.02;82.94
44872;BME280;30602;51.060;17.226;2023-04-25T03:34:04;100619.89;;;7.96;83.47
44872;BME280;30602;51.060;17.226;2023-04-25T03:37:55;100622.41;;;7.93;83.72
44872;BME280;30602;51.060;17.226;2023-04-25T03:41:16;100624.70;;;7.93;83.24
44872;BME280;30602;51.060;17.226;2023-04-25T03:45:11;100627.32;;;7.87;83.97
44872;BME280;30602;51.060;17.226;2023-04-25T03:48:33;100627.94;;;7.89;84.29
44872;BME280;30602;51.060;17.226;2023-04-25T03:51:51;100630.72;;;7.86;84.05
44872;BME280;30602;51.060;17.226;2023-04-25T03:55:23;100635.13;;;7.82;84.18
44872;BME280;30602;51.060;17.226;2023-04-25T03:58:45;100637.90;;;7.79;84.45
44872;BME280;30602;51.060;17.226;2023-04-25T04:02:26;100636.38;;;7.90;84.72
44872;BME280;30602;51.060;17.226;2023-04-25T04:06:29;100641.44;;;7.90;83.69
44872;BME280;30602;51.060;17.226;2023-04-25T04:09:47;100647.03;;;7.93;83.66
44872;BME280;30602;51.060;17.226;2023-04-25T04:13:37;100644.16;;;7.92;83.67
44872;BME280;30602;51.060;17.226;2023-04-25T04:16:59;100645.70;;;7.93;83.32
44872;BME280;30602;51.060;17.226;2023-04-25T04:20:19;100647.70;;;7.98;84.27
44872;BME280;30602;51.060;17.226;2023-04-25T04:23:51;100643.17;;;7.92;83.54
44872;BME280;30602;51.060;17.226;2023-04-25T04:28:01;100644.53;;;7.98;83.66
44872;BME280;30602;51.060;17.226;2023-04-25T04:32:25;100649.45;;;8.04;83.31
44872;BME280;30602;51.060;17.226;2023-04-25T04:36:09;100653.95;;;8.05;83.18
44872;BME280;30602;51.060;17.226;2023-04-25T04:40:22;100655.02;;;8.04;83.59
44872;BME280;30602;51.060;17.226;2023-04-25T04:43:45;100658.07;;;8.12;83.54
44872;BME280;30602;51.060;17.226;2023-04-25T04:47:43;100662.02;;;8.25;83.42
44872;BME280;30602;51.060;17.226;2023-04-25T04:51:56;100661.55;;;8.32;81.74
44872;BME280;30602;51.060;17.226;2023-04-25T04:55:39;100656.87;;;8.42;81.48
44872;BME280;30602;51.060;17.226;2023-04-25T04:59:14;100661.20;;;8.43;81.21
44872;BME280;30602;51.060;17.226;2023-04-25T05:03:23;100629.63;;;8.27;81.14
44872;BME280;30602;51.060;17.226;2023-04-25T05:07:13;100661.89;;;8.46;80.95
44872;BME280;30602;51.060;17.226;2023-04-25T05:11:22;100661.95;;;8.49;81.67
44872;BME280;30602;51.060;17.226;2023-04-25T05:14:59;100657.98;;;8.59;81.39
44872;BME280;30602;51.060;17.226;2023-04-25T05:18:43;100661.30;;;8.46;80.51
44872;BME280;30602;51.060;17.226;2023-04-25T05:22:26;100656.41;;;8.55;80.48
44872;BME280;30602;51.060;17.226;2023-04-25T05:26:30;100653.79;;;8.60;80.97
44872;BME280;30602;51.060;17.226;2023-04-25T05:30:46;100656.60;;;8.75;79.38
44872;BME280;30602;51.060;17.226;2023-04-25T05:34:55;100652.45;;;8.85;78.98
44872;BME280;30602;51.060;17.226;2023-04-25T05:38:27;100654.25;;;9.00;79.55
44872;BME280;30602;51.060;17.226;2023-04-25T05:46:12;100639.23;;;8.93;79.09
44872;BME280;30602;51.060;17.226;2023-04-25T05:49:31;100657.80;;;8.99;77.63
44872;BME280;30602;51.060;17.226;2023-04-25T05:53:25;100657.96;;;8.92;77.62
44872;BME280;30602;51.060;17.226;2023-04-25T05:56:43;100660.26;;;8.95;76.81
44872;BME280;30602;51.060;17.226;2023-04-25T06:00:05;100662.79;;;8.86;76.44
44872;BME280;30602;51.060;17.226;2023-04-25T06:04:32;100660.45;;;8.95;76.85
44872;BME280;30602;51.060;17.226;2023-04-25T06:07:57;100664.37;;;8.98;76.34
44872;BME280;30602;51.060;17.226;2023-04-25T06:11:39;100662.22;;;8.89;76.21
44872;BME280;30602;51.060;17.226;2023-04-25T06:15:19;100661.55;;;9.05;75.96
44872;BME280;30602;51.060;17.226;2023-04-25T06:18:40;100660.48;;;9.06;75.85
44872;BME280;30602;51.060;17.226;2023-04-25T06:22:22;100655.08;;;9.22;76.05
44872;BME280;30602;51.060;17.226;2023-04-25T06:25:47;100657.40;;;9.35;76.33
44872;BME280;30602;51.060;17.226;2023-04-25T06:29:49;100655.91;;;9.21;75.02
44872;BME280;30602;51.060;17.226;2023-04-25T06:33:27;100650.77;;;9.18;74.46
44872;BME280;30602;51.060;17.226;2023-04-25T06:36:48;100648.39;;;9.27;75.56
44872;BME280;30602;51.060;17.226;2023-04-25T06:40:12;100647.29;;;9.39;74.13
44872;BME280;30602;51.060;17.226;2023-04-25T06:43:33;100651.26;;;9.34;73.35
44872;BME280;30602;51.060;17.226;2023-04-25T06:47:26;100651.59;;;9.41;72.47
44872;BME280;30602;51.060;17.226;2023-04-25T06:50:48;100651.77;;;9.46;72.62
44872;BME280;30602;51.060;17.226;2023-04-25T06:54:30;100651.94;;;9.56;72.15
44872;BME280;30602;51.060;17.226;2023-04-25T06:57:53;100647.44;;;9.67;70.96
44872;BME280;30602;51.060;17.226;2023-04-25T07:01:31;100644.32;;;9.81;71.02
44872;BME280;30602;51.060;17.226;2023-04-25T07:05:38;100642.34;;;9.83;70.04
44872;BME280;30602;51.060;17.226;2023-04-25T07:09:26;100639.50;;;9.83;70.45
44872;BME280;30602;51.060;17.226;2023-04-25T07:13:48;100609.82;;;9.70;69.35
44872;BME280;30602;51.060;17.226;2023-04-25T07:17:08;100618.75;;;9.76;67.34
44872;BME280;30602;51.060;17.226;2023-04-25T07:20:28;100639.00;;;9.96;68.05
44872;BME280;30602;51.060;17.226;2023-04-25T07:24:34;100640.95;;;10.06;67.43
44872;BME280;30602;51.060;17.226;2023-04-25T07:28:07;100644.95;;;10.08;66.72
44872;BME280;30602;51.060;17.226;2023-04-25T07:31:48;100616.01;;;10.29;67.60
44872;BME280;30602;51.060;17.226;2023-04-25T07:35:17;100639.31;;;10.73;66.01
44872;BME280;30602;51.060;17.226;2023-04-25T07:38:55;100640.82;;;10.82;65.22
44872;BME280;30602;51.060;17.226;2023-04-25T07:42:50;100642.84;;;10.82;66.42
44872;BME280;30602;51.060;17.226;2023-04-25T07:46:42;100636.61;;;10.78;64.72
44872;BME280;30602;51.060;17.226;2023-04-25T07:50:31;100637.09;;;10.77;64.07
44872;BME280;30602;51.060;17.226;2023-04-25T07:54:55;100632.07;;;10.52;63.85
44872;BME280;30602;51.060;17.226;2023-04-25T07:58:15;100643.32;;;10.57;64.55
44872;BME280;30602;51.060;17.226;2023-04-25T08:01:56;100640.18;;;10.56;64.92
44872;BME280;30602;51.060;17.226;2023-04-25T08:05:14;100638.80;;;10.56;64.00
44872;BME280;30602;51.060;17.226;2023-04-25T08:08:55;100645.92;;;10.55;63.72
44872;BME280;30602;51.060;17.226;2023-04-25T08:12:45;100641.78;;;10.51;62.54
44872;BME280;30602;51.060;17.226;2023-04-25T08:16:07;100643.23;;;10.86;63.77
44872;BME280;30602;51.060;17.226;2023-04-25T08:19:26;100637.76;;;11.26;63.37
44872;BME280;30602;51.060;17.226;2023-04-25T08:22:48;100638.78;;;11.28;63.74
44872;BME280;30602;51.060;17.226;2023-04-25T08:26:33;100638.21;;;11.28;62.45
44872;BME280;30602;51.060;17.226;2023-04-25T08:30:13;100640.32;;;11.41;62.78
44872;BME280;30602;51.060;17.226;2023-04-25T08:33:34;100644.13;;;11.44;65.34
44872;BME280;30602;51.060;17.226;2023-04-25T08:37:04;100639.92;;;11.78;63.01
44872;BME280;30602;51.060;17.226;2023-04-25T08:40:22;100643.45;;;11.61;63.96
44872;BME280;30602;51.060;17.226;2023-04-25T08:44:24;100646.55;;;11.72;64.28
44872;BME280;30602;51.060;17.226;2023-04-25T08:47:51;100581.28;;;10.93;62.84
44872;BME280;30602;51.060;17.226;2023-04-25T08:51:44;100658.44;;;11.34;64.20
44872;BME280;30602;51.060;17.226;2023-04-25T08:55:09;100656.38;;;11.20;65.51
44872;BME280;30602;51.060;17.226;2023-04-25T08:58:49;100655.51;;;11.15;65.23
44872;BME280;30602;51.060;17.226;2023-04-25T09:02:12;100657.62;;;11.11;65.27
44872;BME280;30602;51.060;17.226;2023-04-25T09:05:36;100655.05;;;11.05;65.40
44872;BME280;30602;51.060;17.226;2023-04-25T09:09:02;100668.66;;;11.12;65.52
44872;BME280;30602;51.060;17.226;2023-04-25T09:12:44;100669.36;;;11.05;65.78
44872;BME280;30602;51.060;17.226;2023-04-25T09:16:03;100667.88;;;11.03;66.23
44872;BME280;30602;51.060;17.226;2023-04-25T09:19:30;100659.12;;;11.14;66.46
44872;BME280;30602;51.060;17.226;2023-04-25T09:23:21;100654.01;;;11.15;66.26
44872;BME280;30602;51.060;17.226;2023-04-25T09:26:46;100674.36;;;11.07;67.05
44872;BME280;30602;51.060;17.226;2023-04-25T09:30:19;100660.10;;;11.19;67.01
44872;BME280;30602;51.060;17.226;2023-04-25T09:34:13;100597.41;;;11.08;65.96
44872;BME280;30602;51.060;17.226;2023-04-25T09:38:08;100653.77;;;11.51;63.66
44872;BME280;30602;51.060;17.226;2023-04-25T09:41:54;100649.20;;;11.56;62.94
44872;BME280;30602;51.060;17.226;2023-04-25T09:45:45;100646.13;;;11.89;63.27
44872;BME280;30602;51.060;17.226;2023-04-25T09:49:09;100645.02;;;12.18;61.52
44872;BME280;30602;51.060;17.226;2023-04-25T09:52:30;100642.95;;;12.34;59.15
44872;BME280;30602;51.060;17.226;2023-04-25T09:55:47;100642.73;;;12.59;60.14
44872;BME280;30602;51.060;17.226;2023-04-25T09:59:11;100646.53;;;12.32;58.81
44872;BME280;30602;51.060;17.226;2023-04-25T10:02:50;100650.14;;;11.98;58.89
44872;BME280;30602;51.060;17.226;2023-04-25T10:06:56;100654.85;;;11.93;60.94
44872;BME280;30602;51.060;17.226;2023-04-25T10:10:29;100662.43;;;11.93;62.83
44872;BME280;30602;51.060;17.226;2023-04-25T10:15:02;100669.58;;;11.56;62.92
44872;BME280;30602;51.060;17.226;2023-04-25T10:18:21;100664.88;;;11.61;63.56
44872;BME280;30602;51.060;17.226;2023-04-25T10:25:36;100663.21;;;11.55;63.21
44872;BME280;30602;51.060;17.226;2023-04-25T10:29:26;100666.34;;;11.53;62.45
44872;BME280;30602;51.060;17.226;2023-04-25T10:33:17;100669.85;;;11.62;63.29
44872;BME280;30602;51.060;17.226;2023-04-25T10:37:20;100665.77;;;11.63;60.09
44872;BME280;30602;51.060;17.226;2023-04-25T10:45:07;100644.05;;;12.11;59.35
44872;BME280;30602;51.060;17.226;2023-04-25T10:49:01;100655.02;;;12.13;58.35
44872;BME280;30602;51.060;17.226;2023-04-25T10:52:26;100657.12;;;11.95;58.85
44872;BME280;30602;51.060;17.226;2023-04-25T10:56:19;100652.54;;;11.97;58.14
44872;BME280;30602;51.060;17.226;2023-04-25T10:59:50;100652.99;;;12.23;58.52
44872;BME280;30602;51.060;17.226;2023-04-25T11:03:28;100654.75;;;12.06;58.21
44872;BME280;30602;51.060;17.226;2023-04-25T11:11:22;100646.02;;;11.96;56.57
44872;BME280;30602;51.060;17.226;2023-04-25T11:15:58;100641.63;;;12.27;57.42
44872;BME280;30602;51.060;17.226;2023-04-25T11:19:43;100647.34;;;12.25;54.91
44872;BME280;30602;51.060;17.226;2023-04-25T11:23:01;100650.05;;;12.33;55.41
44872;BME280;30602;51.060;17.226;2023-04-25T11:26:25;100649.47;;;12.55;55.95
44872;BME280;30602;51.060;17.226;2023-04-25T11:30:12;100650.63;;;12.30;56.61
44872;BME280;30602;51.060;17.226;2023-04-25T11:34:19;100643.91;;;12.51;55.58
44872;BME280;30602;51.060;17.226;2023-04-25T11:38:31;100642.12;;;12.37;54.76
44872;BME280;30602;51.060;17.226;2023-04-25T11:42:47;100647.94;;;12.29;55.97
44872;BME280;30602;51.060;17.226;2023-04-25T11:46:07;100652.21;;;12.12;56.26
44872;BME280;30602;51.060;17.226;2023-04-25T11:50:34;100651.97;;;12.05;57.94
44872;BME280;30602;51.060;17.226;2023-04-25T11:54:18;100653.66;;;12.17;56.16
44872;BME280;30602;51.060;17.226;2023-04-25T11:57:40;100648.84;;;12.24;55.60
44872;BME280;30602;51.060;17.226;2023-04-25T12:01:04;100646.54;;;12.26;55.23
44872;BME280;30602;51.060;17.226;2023-04-25T12:05:14;100643.87;;;12.45;53.89
44872;BME280;30602;51.060;17.226;2023-04-25T12:08:33;100641.69;;;12.51;53.38
44872;BME280;30602;51.060;17.226;2023-04-25T12:12:33;100625.68;;;12.40;51.25
44872;BME280;30602;51.060;17.226;2023-04-25T12:15:56;100640.39;;;12.79;51.21
44872;BME280;30602;51.060;17.226;2023-04-25T12:19:59;100641.50;;;12.98;50.22
44872;BME280;30602;51.060;17.226;2023-04-25T12:23:42;100646.95;;;12.89;50.27
44872;BME280;30602;51.060;17.226;2023-04-25T12:27:32;100649.63;;;12.73;51.62
44872;BME280;30602;51.060;17.226;2023-04-25T12:31:25;100651.79;;;12.66;51.45
44872;BME280;30602;51.060;17.226;2023-04-25T12:35:06;100657.83;;;12.58;52.28
44872;BME280;30602;51.060;17.226;2023-04-25T12:38:42;100660.69;;;12.59;52.57
44872;BME280;30602;51.060;17.226;2023-04-25T12:42:00;100658.23;;;12.47;52.52
44872;BME280;30602;51.060;17.226;2023-04-25T12:45:34;100662.31;;;12.32;52.52
44872;BME280;30602;51.060;17.226;2023-04-25T12:49:46;100662.71;;;12.38;51.56
44872;BME280;30602;51.060;17.226;2023-04-25T12:57:04;100657.41;;;12.57;52.32
44872;BME280;30602;51.060;17.226;2023-04-25T13:00:23;100652.86;;;12.56;50.95
44872;BME280;30602;51.060;17.226;2023-04-25T13:03:59;100649.92;;;12.63;51.19
44872;BME280;30602;51.060;17.226;2023-04-25T13:07:36;100649.27;;;12.86;52.79
44872;BME280;30602;51.060;17.226;2023-04-25T13:12:05;100649.63;;;12.50;50.34
44872;BME280;30602;51.060;17.226;2023-04-25T13:16:08;100654.91;;;12.61;51.38
44872;BME280;30602;51.060;17.226;2023-04-25T13:19:27;100651.96;;;12.62;52.25
44872;BME280;30602;51.060;17.226;2023-04-25T13:23:21;100649.88;;;12.48;51.89
44872;BME280;30602;51.060;17.226;2023-04-25T13:27:48;100656.91;;;12.52;53.72
44872;BME280;30602;51.060;17.226;2023-04-25T13:31:29;100650.80;;;12.55;53.78
44872;BME280;30602;51.060;17.226;2023-04-25T13:34:47;100652.04;;;12.43;52.51
44872;BME280;30602;51.060;17.226;2023-04-25T13:38:27;100654.13;;;12.43;53.23
44872;BME280;30602;51.060;17.226;2023-04-25T13:42:09;100649.96;;;12.73;54.03
44872;BME280;30602;51.060;17.226;2023-04-25T13:45:56;100649.48;;;12.69;49.51
44872;BME280;30602;51.060;17.226;2023-04-25T13:49:18;100651.57;;;12.58;49.04
44872;BME280;30602;51.060;17.226;2023-04-25T13:52:40;100655.98;;;12.50;49.19
44872;BME280;30602;51.060;17.226;2023-04-25T13:56:24;100655.41;;;12.41;49.13
44872;BME280;30602;51.060;17.226;2023-04-25T14:00:38;100653.88;;;12.46;50.29
44872;BME280;30602;51.060;17.226;2023-04-25T14:04:20;100659.49;;;12.44;51.11
44872;BME280;30602;51.060;17.226;2023-04-25T14:08:24;100663.55;;;12.40;51.15
44872;BME280;30602;51.060;17.226;2023-04-25T14:11:56;100671.22;;;12.44;52.35
44872;BME280;30602;51.060;17.226;2023-04-25T14:15:49;100674.05;;;12.31;52.55
44872;BME280;30602;51.060;17.226;2023-04-25T14:24:13;100675.31;;;12.68;54.96
44872;BME280;30602;51.060;17.226;2023-04-25T14:28:04;100667.80;;;12.72;51.68
44872;BME280;30602;51.060;17.226;2023-04-25T14:31:49;100665.72;;;12.84;52.27
44872;BME280;30602;51.060;17.226;2023-04-25T14:35:09;100667.82;;;12.97;52.09
44872;BME280;30602;51.060;17.226;2023-04-25T14:39:32;100673.12;;;12.70;51.17
44872;BME280;30602;51.060;17.226;2023-04-25T14:43:15;100679.95;;;12.60;52.55
44872;BME280;30602;51.060;17.226;2023-04-25T14:47:20;100678.47;;;12.55;52.41
44872;BME280;30602;51.060;17.226;2023-04-25T14:51:03;100679.96;;;12.63;53.17
44872;BME280;30602;51.060;17.226;2023-04-25T14:54:22;100677.71;;;12.83;52.48
44872;BME280;30602;51.060;17.226;2023-04-25T14:57:42;100682.79;;;12.91;51.40
44872;BME280;30602;51.060;17.226;2023-04-25T15:01:05;100691.92;;;12.68;51.71
44872;BME280;30602;51.060;17.226;2023-04-25T15:04:48;100698.91;;;12.49;53.91
44872;BME280;30602;51.060;17.226;2023-04-25T15:08:10;100708.11;;;12.25;55.47
44872;BME280;30602;51.060;17.226;2023-04-25T15:11:32;100717.02;;;12.03;56.00
44872;BME280;30602;51.060;17.226;2023-04-25T15:14:51;100720.59;;;11.95;56.85
44872;BME280;30602;51.060;17.226;2023-04-25T15:18:10;100725.42;;;11.77;56.44
44872;BME280;30602;51.060;17.226;2023-04-25T15:22:40;100725.45;;;11.63;56.69
44872;BME280;30602;51.060;17.226;2023-04-25T15:26:21;100733.96;;;11.62;57.99
44872;BME280;30602;51.060;17.226;2023-04-25T15:29:43;100745.03;;;11.49;58.38
44872;BME280;30602;51.060;17.226;2023-04-25T15:33:08;100748.27;;;11.32;58.78
44872;BME280;30602;51.060;17.226;2023-04-25T15:37:35;100751.25;;;11.29;58.54
44872;BME280;30602;51.060;17.226;2023-04-25T15:41:18;100735.42;;;11.12;59.30
44872;BME280;30602;51.060;17.226;2023-04-25T15:44:59;100747.80;;;11.22;57.94
44872;BME280;30602;51.060;17.226;2023-04-25T15:49:28;100753.53;;;11.22;57.54
44872;BME280;30602;51.060;17.226;2023-04-25T15:53:15;100757.23;;;11.27;57.37
44872;BME280;30602;51.060;17.226;2023-04-25T15:56:56;100755.18;;;11.35;58.19
44872;BME280;30602;51.060;17.226;2023-04-25T16:00:47;100758.20;;;11.24;59.02
44872;BME280;30602;51.060;17.226;2023-04-25T16:04:42;100744.75;;;11.08;58.59
44872;BME280;30602;51.060;17.226;2023-04-25T16:08:49;100765.90;;;11.11;59.11
44872;BME280;30602;51.060;17.226;2023-04-25T16:13:07;100771.16;;;11.03;60.03
44872;BME280;30602;51.060;17.226;2023-04-25T16:17:25;100778.36;;;10.97;60.70
44872;BME280;30602;51.060;17.226;2023-04-25T16:21:01;100788.11;;;10.85;63.29
44872;BME280;30602;51.060;17.226;2023-04-25T16:24:32;100782.22;;;10.65;66.20
44872;BME280;30602;51.060;17.226;2023-04-25T16:28:17;100780.95;;;10.64;65.99
44872;BME280;30602;51.060;17.226;2023-04-25T16:32:35;100789.74;;;10.81;66.52
44872;BME280;30602;51.060;17.226;2023-04-25T16:36:09;100789.45;;;10.77;66.55
44872;BME280;30602;51.060;17.226;2023-04-25T16:39:33;100793.67;;;10.70;67.31
44872;BME280;30602;51.060;17.226;2023-04-25T16:42:58;100795.01;;;10.66;67.75
44872;BME280;30602;51.060;17.226;2023-04-25T16:46:49;100794.30;;;10.63;67.24
44872;BME280;30602;51.060;17.226;2023-04-25T16:50:17;100799.05;;;10.56;67.74
44872;BME280;30602;51.060;17.226;2023-04-25T16:53:39;100801.38;;;10.60;68.04
44872;BME280;30602;51.060;17.226;2023-04-25T16:57:30;100800.43;;;10.51;68.00
44872;BME280;30602;51.060;17.226;2023-04-25T17:00:55;100813.30;;;10.48;68.05
44872;BME280;30602;51.060;17.226;2023-04-25T17:04:44;100808.68;;;10.28;67.24
44872;BME280;30602;51.060;17.226;2023-04-25T17:08:46;100830.79;;;10.28;67.04
44872;BME280;30602;51.060;17.226;2023-04-25T17:12:28;100835.79;;;10.17;68.77
44872;BME280;30602;51.060;17.226;2023-04-25T17:16:41;100848.20;;;10.01;70.07
44872;BME280;30602;51.060;17.226;2023-04-25T17:20:36;100872.15;;;9.96;70.49
44872;BME280;30602;51.060;17.226;2023-04-25T17:24:18;100872.40;;;9.57;69.77
44872;BME280;30602;51.060;17.226;2023-04-25T17:28:16;100882.31;;;9.30;71.56
44872;BME280;30602;51.060;17.226;2023-04-25T17:32:00;100885.66;;;9.07;74.93
44872;BME280;30602;51.060;17.226;2023-04-25T17:36:03;100882.78;;;8.83;77.44
44872;BME280;30602;51.060;17.226;2023-04-25T17:39:57;100902.26;;;8.73;78.45
44872;BME280;30602;51.060;17.226;2023-04-25T17:43:31;100906.75;;;8.61;77.43
44872;BME280;30602;51.060;17.226;2023-04-25T17:46:53;100904.66;;;8.54;77.28
44872;BME280;30602;51.060;17.226;2023-04-25T17:50:22;100905.09;;;8.51;76.32
44872;BME280;30602;51.060;17.226;2023-04-25T17:54:07;100910.26;;;8.68;74.78
44872;BME280;30602;51.060;17.226;2023-04-25T17:57:49;100918.89;;;8.74;73.49
44872;BME280;30602;51.060;17.226;2023-04-25T18:01:10;100923.65;;;8.66;73.71
44872;BME280;30602;51.060;17.226;2023-04-25T18:04:32;100922.16;;;8.66;73.63
44872;BME280;30602;51.060;17.226;2023-04-25T18:07:59;100916.38;;;8.45;73.74
44872;BME280;30602;51.060;17.226;2023-04-25T18:11:19;100936.13;;;8.57;73.81
44872;BME280;30602;51.060;17.226;2023-04-25T18:14:58;100941.95;;;8.50;74.46
44872;BME280;30602;51.060;17.226;2023-04-25T18:18:52;100942.65;;;8.51;75.10
44872;BME280;30602;51.060;17.226;2023-04-25T18:22:37;100949.95;;;8.50;75.49
44872;BME280;30602;51.060;17.226;2023-04-25T18:25:56;100950.96;;;8.59;75.79
44872;BME280;30602;51.060;17.226;2023-04-25T18:29:17;100955.70;;;8.57;76.74
44872;BME280;30602;51.060;17.226;2023-04-25T18:33:21;100960.66;;;8.68;77.17
44872;BME280;30602;51.060;17.226;2023-04-25T18:37:22;100968.87;;;8.78;77.62
44872;BME280;30602;51.060;17.226;2023-04-25T18:40:45;100978.02;;;8.86;78.18
44872;BME280;30602;51.060;17.226;2023-04-25T18:44:28;100977.55;;;8.84;78.08
44872;BME280;30602;51.060;17.226;2023-04-25T18:48:57;100981.06;;;8.81;77.69
44872;BME280;30602;51.060;17.226;2023-04-25T18:52:20;100975.57;;;8.63;77.93
44872;BME280;30602;51.060;17.226;2023-04-25T18:56:06;100997.55;;;8.66;77.61
44872;BME280;30602;51.060;17.226;2023-04-25T18:59:48;101000.49;;;8.64;76.44
44872;BME280;30602;51.060;17.226;2023-04-25T19:03:40;101004.26;;;8.71;76.39
44872;BME280;30602;51.060;17.226;2023-04-25T19:07:32;101009.17;;;8.66;76.86
44872;BME280;30602;51.060;17.226;2023-04-25T19:10:54;101009.72;;;8.66;77.54
44872;BME280;30602;51.060;17.226;2023-04-25T19:14:14;101011.89;;;8.64;77.38
44872;BME280;30602;51.060;17.226;2023-04-25T19:17:33;101005.87;;;8.70;76.25
44872;BME280;30602;51.060;17.226;2023-04-25T19:21:42;101006.30;;;8.77;75.47
44872;BME280;30602;51.060;17.226;2023-04-25T19:25:23;101005.70;;;8.77;75.15
44872;BME280;30602;51.060;17.226;2023-04-25T19:28:44;101011.34;;;8.71;76.02
44872;BME280;30602;51.060;17.226;2023-04-25T19:32:26;101013.53;;;8.67;75.82
44872;BME280;30602;51.060;17.226;2023-04-25T19:36:04;101014.59;;;8.61;74.77
44872;BME280;30602;51.060;17.226;2023-04-25T19:39:26;101009.78;;;8.58;73.78
44872;BME280;30602;51.060;17.226;2023-04-25T19:43:32;101007.79;;;8.47;73.85
44872;BME280;30602;51.060;17.226;2023-04-25T19:47:15;101012.30;;;8.45;73.99